Terminal Aerodrome Forecast
Issued by NWS

Home | Current Version | Previous Version | Graphics & Text | Print | Product List | Glossary On
Versions: 1 2 3 4 5 6 7 8 9 10 11 12 13 14 15 16 17 18 19 20 21 22 23 24
000
FTUS43 KBIS 271700
TAFMOT
TAF
KMOT 271740Z 2718/2818 23016KT P6SM BKN020
     FM272000 27015G23KT P6SM BKN040
     FM280200 30015KT 5SM -RA OVC008
     FM280600 32016KT 4SM -RASN OVC007
     FM280700 32015G23KT P6SM OVC007=

USA.gov is the U.S. government's official web portal to all federal, state and local government web resources and services.